sensor_id;sensor_type;location;lat;lon;timestamp;pressure;altitude;pressure_sealevel;temperature;humidity
32197;BME280;18697;42.770;23.400;2023-10-31T00:01:43;95768.72;;;18.12;43.97
32197;BME280;18697;42.770;23.400;2023-10-31T00:04:09;95762.84;;;18.21;50.21
32197;BME280;18697;42.770;23.400;2023-10-31T00:06:34;95751.34;;;18.08;49.41
32197;BME280;18697;42.770;23.400;2023-10-31T00:09:00;95772.44;;;17.47;45.12
32197;BME280;18697;42.770;23.400;2023-10-31T00:11:26;95745.59;;;17.35;51.72
32197;BME280;18697;42.770;23.400;2023-10-31T00:13:51;95763.78;;;17.51;51.58
32197;BME280;18697;42.770;23.400;2023-10-31T00:16:16;95762.84;;;17.70;52.03
32197;BME280;18697;42.770;23.400;2023-10-31T00:18:41;95756.88;;;17.52;50.67
32197;BME280;18697;42.770;23.400;2023-10-31T00:21:07;95754.09;;;17.57;50.08
32197;BME280;18697;42.770;23.400;2023-10-31T00:23:32;95756.97;;;17.74;51.16
32197;BME280;18697;42.770;23.400;2023-10-31T00:25:57;95753.13;;;17.99;50.19
32197;BME280;18697;42.770;23.400;2023-10-31T00:28:23;95750.06;;;17.86;49.92
32197;BME280;18697;42.770;23.400;2023-10-31T00:30:48;95757.47;;;18.06;50.24
32197;BME280;18697;42.770;23.400;2023-10-31T00:33:14;95754.94;;;18.14;49.55
32197;BME280;18697;42.770;23.400;2023-10-31T00:35:39;95750.84;;;18.15;49.01
32197;BME280;18697;42.770;23.400;2023-10-31T00:38:04;95738.81;;;18.25;49.78
32197;BME280;18697;42.770;23.400;2023-10-31T00:40:29;95745.19;;;18.37;49.56
32197;BME280;18697;42.770;23.400;2023-10-31T00:42:55;95746.22;;;18.34;48.07
32197;BME280;18697;42.770;23.400;2023-10-31T00:45:23;95744.16;;;18.46;48.05
32197;BME280;18697;42.770;23.400;2023-10-31T00:47:48;95741.84;;;18.66;48.06
32197;BME280;18697;42.770;23.400;2023-10-31T00:50:14;95737.16;;;18.91;47.96
32197;BME280;18697;42.770;23.400;2023-10-31T00:52:39;95736.94;;;18.78;45.84
32197;BME280;18697;42.770;23.400;2023-10-31T00:55:05;95725.78;;;18.45;48.63
32197;BME280;18697;42.770;23.400;2023-10-31T00:57:30;95734.97;;;18.51;48.10
32197;BME280;18697;42.770;23.400;2023-10-31T00:59:55;95725.03;;;18.22;46.93
32197;BME280;18697;42.770;23.400;2023-10-31T01:02:21;95716.56;;;17.60;51.56
32197;BME280;18697;42.770;23.400;2023-10-31T01:04:46;95716.63;;;17.71;50.23
32197;BME280;18697;42.770;23.400;2023-10-31T01:07:11;95711.25;;;17.73;50.40
32197;BME280;18697;42.770;23.400;2023-10-31T01:09:38;95710.72;;;17.97;50.04
32197;BME280;18697;42.770;23.400;2023-10-31T01:12:04;95713.03;;;17.93;48.64
32197;BME280;18697;42.770;23.400;2023-10-31T01:14:30;95710.47;;;18.01;48.70
32197;BME280;18697;42.770;23.400;2023-10-31T01:16:55;95713.03;;;18.04;48.86
32197;BME280;18697;42.770;23.400;2023-10-31T01:19:21;95711.75;;;18.11;48.32
32197;BME280;18697;42.770;23.400;2023-10-31T01:21:46;95712.00;;;18.19;48.25
32197;BME280;18697;42.770;23.400;2023-10-31T01:24:11;95702.81;;;18.13;47.75
32197;BME280;18697;42.770;23.400;2023-10-31T01:26:37;95698.72;;;18.14;48.39
32197;BME280;18697;42.770;23.400;2023-10-31T01:29:02;95704.09;;;18.12;47.00
32197;BME280;18697;42.770;23.400;2023-10-31T01:31:27;95705.38;;;17.99;48.90
32197;BME280;18697;42.770;23.400;2023-10-31T01:33:53;95703.84;;;17.93;48.11
32197;BME280;18697;42.770;23.400;2023-10-31T01:36:18;95709.41;;;17.59;45.72
32197;BME280;18697;42.770;23.400;2023-10-31T01:38:44;95705.03;;;17.36;49.46
32197;BME280;18697;42.770;23.400;2023-10-31T01:41:11;95704.75;;;17.23;51.17
32197;BME280;18697;42.770;23.400;2023-10-31T01:43:37;95707.84;;;17.36;49.24
32197;BME280;18697;42.770;23.400;2023-10-31T01:46:04;95706.59;;;17.54;50.22
32197;BME280;18697;42.770;23.400;2023-10-31T01:48:31;95707.94;;;17.75;49.19
32197;BME280;18697;42.770;23.400;2023-10-31T01:50:59;95714.56;;;17.94;47.31
32197;BME280;18697;42.770;23.400;2023-10-31T01:53:25;95705.38;;;17.99;48.43
32197;BME280;18697;42.770;23.400;2023-10-31T01:55:52;95701.28;;;17.95;47.01
32197;BME280;18697;42.770;23.400;2023-10-31T01:58:20;95697.94;;;17.96;47.91
32197;BME280;18697;42.770;23.400;2023-10-31T02:00:47;95704.34;;;18.08;46.75
32197;BME280;18697;42.770;23.400;2023-10-31T02:03:12;95694.13;;;17.99;46.95
32197;BME280;18697;42.770;23.400;2023-10-31T02:05:38;95683.66;;;17.94;47.28
32197;BME280;18697;42.770;23.400;2023-10-31T02:08:05;95698.22;;;17.82;44.80
32197;BME280;18697;42.770;23.400;2023-10-31T02:10:33;95686.91;;;17.37;49.08
32197;BME280;18697;42.770;23.400;2023-10-31T02:15:37;95682.00;;;16.98;47.51
32197;BME280;18697;42.770;23.400;2023-10-31T02:18:03;95680.19;;;16.90;50.79
32197;BME280;18697;42.770;23.400;2023-10-31T02:20:28;95685.56;;;17.10;50.54
32197;BME280;18697;42.770;23.400;2023-10-31T02:22:54;95685.59;;;17.21;48.82
32197;BME280;18697;42.770;23.400;2023-10-31T02:25:19;95690.22;;;17.35;49.69
32197;BME280;18697;42.770;23.400;2023-10-31T02:27:45;95685.91;;;17.51;48.96
32197;BME280;18697;42.770;23.400;2023-10-31T02:30:11;95687.97;;;17.56;48.63
32197;BME280;18697;42.770;23.400;2023-10-31T02:32:36;95670.59;;;17.52;48.52
32197;BME280;18697;42.770;23.400;2023-10-31T02:35:02;95676.00;;;17.72;48.44
32197;BME280;18697;42.770;23.400;2023-10-31T02:37:27;95680.06;;;17.60;45.73
32197;BME280;18697;42.770;23.400;2023-10-31T02:39:53;95675.44;;;16.10;50.93
32197;BME280;18697;42.770;23.400;2023-10-31T02:42:18;95682.81;;;16.56;50.72
32197;BME280;18697;42.770;23.400;2023-10-31T02:44:43;95679.84;;;16.71;50.13
32197;BME280;18697;42.770;23.400;2023-10-31T02:47:09;95670.00;;;16.92;49.12
32197;BME280;18697;42.770;23.400;2023-10-31T02:49:34;95687.91;;;17.23;48.23
32197;BME280;18697;42.770;23.400;2023-10-31T02:51:59;95690.25;;;17.47;48.63
32197;BME280;18697;42.770;23.400;2023-10-31T02:54:25;95692.81;;;17.56;47.28
32197;BME280;18697;42.770;23.400;2023-10-31T02:56:50;95687.72;;;17.49;47.93
32197;BME280;18697;42.770;23.400;2023-10-31T02:59:15;95696.41;;;17.62;46.63
32197;BME280;18697;42.770;23.400;2023-10-31T03:01:41;95693.84;;;17.53;46.73
32197;BME280;18697;42.770;23.400;2023-10-31T03:04:06;95695.13;;;17.52;47.50
32197;BME280;18697;42.770;23.400;2023-10-31T03:06:31;95692.34;;;17.74;46.77
32197;BME280;18697;42.770;23.400;2023-10-31T03:08:57;95688.22;;;17.41;47.29
32197;BME280;18697;42.770;23.400;2023-10-31T03:11:23;95688.22;;;17.53;47.83
32197;BME280;18697;42.770;23.400;2023-10-31T03:13:49;95692.81;;;17.56;46.89
32197;BME280;18697;42.770;23.400;2023-10-31T03:16:15;95695.63;;;17.61;47.14
32197;BME280;18697;42.770;23.400;2023-10-31T03:18:40;95694.63;;;17.59;46.28
32197;BME280;18697;42.770;23.400;2023-10-31T03:21:06;95695.94;;;17.75;46.95
32197;BME280;18697;42.770;23.400;2023-10-31T03:23:31;95697.47;;;17.70;46.44
32197;BME280;18697;42.770;23.400;2023-10-31T03:25:56;95695.69;;;17.78;46.63
32197;BME280;18697;42.770;23.400;2023-10-31T03:28:22;95682.09;;;17.60;45.86
32197;BME280;18697;42.770;23.400;2023-10-31T03:30:51;95665.22;;;17.37;46.83
32197;BME280;18697;42.770;23.400;2023-10-31T03:33:16;95671.03;;;17.12;44.38
32197;BME280;18697;42.770;23.400;2023-10-31T03:35:42;95667.44;;;16.40;48.05
32197;BME280;18697;42.770;23.400;2023-10-31T03:38:08;95656.53;;;16.54;48.88
32197;BME280;18697;42.770;23.400;2023-10-31T03:40:34;95660.25;;;16.77;49.25
32197;BME280;18697;42.770;23.400;2023-10-31T03:42:59;95652.88;;;16.85;49.00
32197;BME280;18697;42.770;23.400;2023-10-31T03:45:24;95646.78;;;16.97;48.23
32197;BME280;18697;42.770;23.400;2023-10-31T03:47:49;95662.94;;;17.36;47.71
32197;BME280;18697;42.770;23.400;2023-10-31T03:50:15;95660.91;;;17.53;47.08
32197;BME280;18697;42.770;23.400;2023-10-31T03:52:40;95664.47;;;17.37;45.87
32197;BME280;18697;42.770;23.400;2023-10-31T03:55:05;95664.22;;;17.40;46.46
32197;BME280;18697;42.770;23.400;2023-10-31T03:57:31;95660.91;;;17.42;46.79
32197;BME280;18697;42.770;23.400;2023-10-31T03:59:56;95669.06;;;17.40;46.10
32197;BME280;18697;42.770;23.400;2023-10-31T04:02:22;95665.47;;;17.34;45.71
32197;BME280;18697;42.770;23.400;2023-10-31T04:04:48;95671.28;;;16.97;44.55
32197;BME280;18697;42.770;23.400;2023-10-31T04:07:14;95680.22;;;16.47;45.83
32197;BME280;18697;42.770;23.400;2023-10-31T04:09:40;95660.00;;;16.26;46.41
32197;BME280;18697;42.770;23.400;2023-10-31T04:12:05;95656.66;;;16.22;49.65
32197;BME280;18697;42.770;23.400;2023-10-31T04:14:31;95655.69;;;16.31;49.33
32197;BME280;18697;42.770;23.400;2023-10-31T04:16:56;95667.50;;;16.52;49.08
32197;BME280;18697;42.770;23.400;2023-10-31T04:19:21;95655.66;;;16.79;48.49
32197;BME280;18697;42.770;23.400;2023-10-31T04:21:47;95656.88;;;16.67;46.95
32197;BME280;18697;42.770;23.400;2023-10-31T04:24:12;95659.97;;;16.21;44.55
32197;BME280;18697;42.770;23.400;2023-10-31T04:26:40;95651.41;;;15.09;46.43
32197;BME280;18697;42.770;23.400;2023-10-31T04:29:05;95644.38;;;14.68;48.82
32197;BME280;18697;42.770;23.400;2023-10-31T04:31:30;95641.94;;;13.65;51.70
32197;BME280;18697;42.770;23.400;2023-10-31T04:33:56;95645.44;;;13.15;54.61
32197;BME280;18697;42.770;23.400;2023-10-31T04:36:21;95648.13;;;13.10;58.59
32197;BME280;18697;42.770;23.400;2023-10-31T04:38:46;95649.84;;;14.01;56.46
32197;BME280;18697;42.770;23.400;2023-10-31T04:41:12;95651.38;;;14.58;54.29
32197;BME280;18697;42.770;23.400;2023-10-31T04:43:37;95657.31;;;14.65;54.30
32197;BME280;18697;42.770;23.400;2023-10-31T04:46:06;95664.31;;;15.27;52.53
32197;BME280;18697;42.770;23.400;2023-10-31T04:48:32;95665.72;;;15.43;51.51
32197;BME280;18697;42.770;23.400;2023-10-31T04:50:58;95663.56;;;15.90;51.98
32197;BME280;18697;42.770;23.400;2023-10-31T04:53:23;95663.97;;;16.08;52.63
32197;BME280;18697;42.770;23.400;2023-10-31T04:55:49;95679.69;;;16.43;54.78
32197;BME280;18697;42.770;23.400;2023-10-31T04:58:14;95681.03;;;16.59;50.09
32197;BME280;18697;42.770;23.400;2023-10-31T05:00:40;95669.94;;;16.81;49.83
32197;BME280;18697;42.770;23.400;2023-10-31T05:03:06;95684.44;;;16.68;47.37
32197;BME280;18697;42.770;23.400;2023-10-31T05:05:31;95688.13;;;16.97;47.87
32197;BME280;18697;42.770;23.400;2023-10-31T05:07:57;95688.56;;;16.79;47.66
32197;BME280;18697;42.770;23.400;2023-10-31T05:10:23;95679.81;;;16.65;46.81
32197;BME280;18697;42.770;23.400;2023-10-31T05:12:49;95671.59;;;16.56;47.42
32197;BME280;18697;42.770;23.400;2023-10-31T05:15:15;95670.31;;;16.57;49.70
32197;BME280;18697;42.770;23.400;2023-10-31T05:17:41;95676.31;;;16.82;48.85
32197;BME280;18697;42.770;23.400;2023-10-31T05:20:06;95680.66;;;16.83;48.92
32197;BME280;18697;42.770;23.400;2023-10-31T05:22:31;95676.88;;;16.97;47.86
32197;BME280;18697;42.770;23.400;2023-10-31T05:24:57;95669.59;;;16.62;47.72
32197;BME280;18697;42.770;23.400;2023-10-31T05:27:22;95675.16;;;16.57;49.48
32197;BME280;18697;42.770;23.400;2023-10-31T05:29:48;95678.13;;;16.36;46.50
32197;BME280;18697;42.770;23.400;2023-10-31T05:32:13;95668.38;;;16.21;50.60
32197;BME280;18697;42.770;23.400;2023-10-31T05:34:38;95667.38;;;16.24;49.74
32197;BME280;18697;42.770;23.400;2023-10-31T05:37:04;95672.97;;;15.87;47.87
32197;BME280;18697;42.770;23.400;2023-10-31T05:39:31;95673.63;;;15.44;51.94
32197;BME280;18697;42.770;23.400;2023-10-31T05:41:56;95678.72;;;15.46;51.28
32197;BME280;18697;42.770;23.400;2023-10-31T05:44:22;95687.53;;;14.87;52.23
32197;BME280;18697;42.770;23.400;2023-10-31T05:46:47;95687.53;;;13.91;54.08
32197;BME280;18697;42.770;23.400;2023-10-31T05:49:12;95694.59;;;13.57;56.26
32197;BME280;18697;42.770;23.400;2023-10-31T05:51:38;95684.88;;;13.67;57.21
32197;BME280;18697;42.770;23.400;2023-10-31T05:54:03;95690.66;;;13.49;57.30
32197;BME280;18697;42.770;23.400;2023-10-31T05:56:29;95700.06;;;11.97;62.11
32197;BME280;18697;42.770;23.400;2023-10-31T05:58:55;95704.72;;;11.91;64.44
32197;BME280;18697;42.770;23.400;2023-10-31T06:01:20;95715.56;;;12.46;63.34
32197;BME280;18697;42.770;23.400;2023-10-31T06:03:45;95718.88;;;12.98;62.21
32197;BME280;18697;42.770;23.400;2023-10-31T06:06:11;95721.53;;;13.16;62.12
32197;BME280;18697;42.770;23.400;2023-10-31T06:08:38;95715.00;;;13.48;60.78
32197;BME280;18697;42.770;23.400;2023-10-31T06:11:04;95720.09;;;14.14;58.55
32197;BME280;18697;42.770;23.400;2023-10-31T06:13:29;95722.38;;;14.66;56.99
32197;BME280;18697;42.770;23.400;2023-10-31T06:15:57;95719.53;;;15.06;55.73
32197;BME280;18697;42.770;23.400;2023-10-31T06:18:23;95721.31;;;15.56;54.26
32197;BME280;18697;42.770;23.400;2023-10-31T06:20:49;95726.63;;;15.80;53.67
32197;BME280;18697;42.770;23.400;2023-10-31T06:23:14;95711.31;;;16.06;52.63
32197;BME280;18697;42.770;23.400;2023-10-31T06:25:39;95719.06;;;16.23;52.33
32197;BME280;18697;42.770;23.400;2023-10-31T06:28:05;95716.91;;;16.49;51.58
32197;BME280;18697;42.770;23.400;2023-10-31T06:30:30;95718.72;;;16.95;50.39
32197;BME280;18697;42.770;23.400;2023-10-31T06:32:55;95721.84;;;17.19;49.18
32197;BME280;18697;42.770;23.400;2023-10-31T06:35:22;95723.97;;;17.52;48.49
32197;BME280;18697;42.770;23.400;2023-10-31T06:37:50;95713.78;;;17.99;47.41
32197;BME280;18697;42.770;23.400;2023-10-31T06:40:16;95717.34;;;18.39;46.64
32197;BME280;18697;42.770;23.400;2023-10-31T06:42:41;95717.53;;;18.58;46.01
32197;BME280;18697;42.770;23.400;2023-10-31T06:45:07;95716.25;;;18.59;45.71
32197;BME280;18697;42.770;23.400;2023-10-31T06:47:32;95707.78;;;18.81;45.38
32197;BME280;18697;42.770;23.400;2023-10-31T06:49:58;95708.97;;;19.08;44.42
32197;BME280;18697;42.770;23.400;2023-10-31T06:52:23;95701.59;;;19.41;43.71
32197;BME280;18697;42.770;23.400;2023-10-31T06:54:48;95704.31;;;19.63;43.25
32197;BME280;18697;42.770;23.400;2023-10-31T06:57:14;95702.41;;;19.77;43.12
32197;BME280;18697;42.770;23.400;2023-10-31T06:59:41;95690.69;;;20.02;42.49
32197;BME280;18697;42.770;23.400;2023-10-31T07:02:07;95692.00;;;20.26;41.84
32197;BME280;18697;42.770;23.400;2023-10-31T07:04:32;95704.22;;;20.40;41.76
32197;BME280;18697;42.770;23.400;2023-10-31T07:06:57;95703.69;;;20.41;42.04
32197;BME280;18697;42.770;23.400;2023-10-31T07:09:24;95697.34;;;20.59;41.62
32197;BME280;18697;42.770;23.400;2023-10-31T07:11:49;95708.34;;;20.82;41.83
32197;BME280;18697;42.770;23.400;2023-10-31T07:14:15;95698.81;;;20.66;42.50
32197;BME280;18697;42.770;23.400;2023-10-31T07:16:40;95689.88;;;18.79;47.23
32197;BME280;18697;42.770;23.400;2023-10-31T07:19:09;95683.25;;;18.70;48.13
32197;BME280;18697;42.770;23.400;2023-10-31T07:21:34;95683.16;;;19.40;46.37
32197;BME280;18697;42.770;23.400;2023-10-31T07:24:00;95694.69;;;19.83;45.88
32197;BME280;18697;42.770;23.400;2023-10-31T07:26:25;95690.69;;;20.02;46.34
32197;BME280;18697;42.770;23.400;2023-10-31T07:28:52;95685.00;;;20.32;45.68
32197;BME280;18697;42.770;23.400;2023-10-31T07:31:18;95685.28;;;20.59;45.08
32197;BME280;18697;42.770;23.400;2023-10-31T07:33:44;95681.81;;;20.47;45.69
32197;BME280;18697;42.770;23.400;2023-10-31T07:36:10;95696.09;;;20.55;45.18
32197;BME280;18697;42.770;23.400;2023-10-31T07:38:35;95691.81;;;20.91;43.87
32197;BME280;18697;42.770;23.400;2023-10-31T07:41:01;95688.91;;;21.21;43.88
32197;BME280;18697;42.770;23.400;2023-10-31T07:43:26;95667.00;;;20.84;44.29
32197;BME280;18697;42.770;23.400;2023-10-31T07:45:51;95662.78;;;20.53;46.08
32197;BME280;18697;42.770;23.400;2023-10-31T07:48:17;95652.38;;;20.13;47.10
32197;BME280;18697;42.770;23.400;2023-10-31T07:50:42;95660.97;;;19.72;48.04
32197;BME280;18697;42.770;23.400;2023-10-31T07:53:08;95657.97;;;19.94;47.13
32197;BME280;18697;42.770;23.400;2023-10-31T07:55:33;95659.00;;;20.45;47.14
32197;BME280;18697;42.770;23.400;2023-10-31T07:57:58;95645.53;;;20.32;47.65
32197;BME280;18697;42.770;23.400;2023-10-31T08:00:24;95640.19;;;20.05;48.31
32197;BME280;18697;42.770;23.400;2023-10-31T08:02:50;95630.09;;;20.39;48.57
32197;BME280;18697;42.770;23.400;2023-10-31T08:05:15;95627.94;;;20.51;47.75
32197;BME280;18697;42.770;23.400;2023-10-31T08:07:41;95628.44;;;20.25;48.78
32197;BME280;18697;42.770;23.400;2023-10-31T08:10:06;95633.03;;;19.74;49.15
32197;BME280;18697;42.770;23.400;2023-10-31T08:12:32;95629.56;;;19.21;50.79
32197;BME280;18697;42.770;23.400;2023-10-31T08:14:57;95642.91;;;19.56;50.45
32197;BME280;18697;42.770;23.400;2023-10-31T08:17:24;95646.09;;;20.25;48.72
32197;BME280;18697;42.770;23.400;2023-10-31T08:19:49;95637.66;;;20.25;48.76
32197;BME280;18697;42.770;23.400;2023-10-31T08:22:14;95629.09;;;20.61;48.66
32197;BME280;18697;42.770;23.400;2023-10-31T08:24:40;95627.38;;;20.77;47.66
32197;BME280;18697;42.770;23.400;2023-10-31T08:27:05;95628.31;;;20.60;47.93
32197;BME280;18697;42.770;23.400;2023-10-31T08:29:31;95609.81;;;20.84;47.89
32197;BME280;18697;42.770;23.400;2023-10-31T08:31:56;95599.50;;;20.86;46.99
32197;BME280;18697;42.770;23.400;2023-10-31T08:34:22;95600.44;;;20.76;47.84
32197;BME280;18697;42.770;23.400;2023-10-31T08:36:47;95597.53;;;21.38;46.99
32197;BME280;18697;42.770;23.400;2023-10-31T08:39:12;95582.34;;;21.03;46.61
32197;BME280;18697;42.770;23.400;2023-10-31T08:44:17;95581.44;;;21.78;46.93
32197;BME280;18697;42.770;23.400;2023-10-31T08:46:42;95579.59;;;21.80;45.51
32197;BME280;18697;42.770;23.400;2023-10-31T08:49:08;95585.47;;;21.82;44.97
32197;BME280;18697;42.770;23.400;2023-10-31T08:51:33;95578.09;;;21.92;45.28
32197;BME280;18697;42.770;23.400;2023-10-31T08:53:58;95572.16;;;22.49;43.99
32197;BME280;18697;42.770;23.400;2023-10-31T08:56:24;95570.75;;;23.16;42.87
32197;BME280;18697;42.770;23.400;2023-10-31T08:58:49;95556.81;;;23.18;41.99
32197;BME280;18697;42.770;23.400;2023-10-31T09:01:15;95551.69;;;22.69;43.74
32197;BME280;18697;42.770;23.400;2023-10-31T09:03:40;95546.13;;;22.77;43.13
32197;BME280;18697;42.770;23.400;2023-10-31T09:06:05;95546.97;;;22.98;43.09
32197;BME280;18697;42.770;23.400;2023-10-31T09:08:31;95544.91;;;23.19;43.18
32197;BME280;18697;42.770;23.400;2023-10-31T09:10:56;95538.97;;;23.10;43.19
32197;BME280;18697;42.770;23.400;2023-10-31T09:13:22;95531.50;;;22.99;43.66
32197;BME280;18697;42.770;23.400;2023-10-31T09:15:47;95525.66;;;22.84;43.43
32197;BME280;18697;42.770;23.400;2023-10-31T09:18:15;95519.78;;;22.82;43.92
32197;BME280;18697;42.770;23.400;2023-10-31T09:20:40;95520.25;;;23.27;42.97
32197;BME280;18697;42.770;23.400;2023-10-31T09:23:06;95514.50;;;23.54;43.55
32197;BME280;18697;42.770;23.400;2023-10-31T09:25:31;95505.19;;;23.33;42.88
32197;BME280;18697;42.770;23.400;2023-10-31T09:27:57;95498.56;;;23.51;43.23
32197;BME280;18697;42.770;23.400;2023-10-31T09:30:24;95502.06;;;23.57;42.51
32197;BME280;18697;42.770;23.400;2023-10-31T09:32:50;95498.84;;;23.40;43.10
32197;BME280;18697;42.770;23.400;2023-10-31T09:35:17;95482.44;;;23.04;43.44
32197;BME280;18697;42.770;23.400;2023-10-31T09:37:42;95479.97;;;23.21;43.42
32197;BME280;18697;42.770;23.400;2023-10-31T09:40:09;95465.47;;;23.67;43.28
32197;BME280;18697;42.770;23.400;2023-10-31T09:42:35;95468.59;;;23.55;43.15
32197;BME280;18697;42.770;23.400;2023-10-31T09:45:01;95458.81;;;23.92;42.85
32197;BME280;18697;42.770;23.400;2023-10-31T09:47:27;95458.97;;;23.87;42.30
32197;BME280;18697;42.770;23.400;2023-10-31T09:49:52;95452.13;;;23.82;42.71
32197;BME280;18697;42.770;23.400;2023-10-31T09:52:18;95449.56;;;23.92;42.25
32197;BME280;18697;42.770;23.400;2023-10-31T09:54:47;95444.44;;;23.62;42.84
32197;BME280;18697;42.770;23.400;2023-10-31T09:57:14;95431.44;;;23.46;43.17
32197;BME280;18697;42.770;23.400;2023-10-31T09:59:40;95422.28;;;23.11;44.42
32197;BME280;18697;42.770;23.400;2023-10-31T10:02:05;95424.66;;;23.49;43.37
32197;BME280;18697;42.770;23.400;2023-10-31T10:04:31;95412.38;;;24.03;43.41
32197;BME280;18697;42.770;23.400;2023-10-31T10:06:59;95415.75;;;24.02;42.45
32197;BME280;18697;42.770;23.400;2023-10-31T10:09:25;95399.19;;;24.13;42.77
32197;BME280;18697;42.770;23.400;2023-10-31T10:11:51;95390.06;;;24.43;41.88
32197;BME280;18697;42.770;23.400;2023-10-31T10:14:17;95385.84;;;23.93;43.17
32197;BME280;18697;42.770;23.400;2023-10-31T10:16:42;95387.66;;;23.75;42.95
32197;BME280;18697;42.770;23.400;2023-10-31T10:19:20;95382.03;;;23.90;43.07
32197;BME280;18697;42.770;23.400;2023-10-31T10:21:50;95371.75;;;23.72;42.94
32197;BME280;18697;42.770;23.400;2023-10-31T10:24:17;95363.06;;;23.70;43.86
32197;BME280;18697;42.770;23.400;2023-10-31T10:26:44;95367.25;;;23.27;44.02
32197;BME280;18697;42.770;23.400;2023-10-31T10:29:09;95355.25;;;23.63;43.41
32197;BME280;18697;42.770;23.400;2023-10-31T10:31:34;95350.34;;;23.64;42.75
32197;BME280;18697;42.770;23.400;2023-10-31T10:34:00;95351.25;;;23.58;43.00
32197;BME280;18697;42.770;23.400;2023-10-31T10:36:27;95350.56;;;23.16;43.76
32197;BME280;18697;42.770;23.400;2023-10-31T10:38:56;95350.06;;;23.25;43.75
32197;BME280;18697;42.770;23.400;2023-10-31T10:41:25;95343.19;;;23.42;44.02
32197;BME280;18697;42.770;23.400;2023-10-31T10:43:56;95340.69;;;23.59;44.28
32197;BME280;18697;42.770;23.400;2023-10-31T10:46:24;95322.81;;;23.72;43.05
32197;BME280;18697;42.770;23.400;2023-10-31T10:48:54;95329.84;;;23.86;42.30
32197;BME280;18697;42.770;23.400;2023-10-31T10:51:53;95321.59;;;24.03;42.76
32197;BME280;18697;42.770;23.400;2023-10-31T10:54:32;95322.72;;;24.00;41.81
32197;BME280;18697;42.770;23.400;2023-10-31T10:57:23;95321.59;;;24.03;41.45
32197;BME280;18697;42.770;23.400;2023-10-31T10:59:54;95309.03;;;24.27;41.35
32197;BME280;18697;42.770;23.400;2023-10-31T11:02:22;95297.38;;;24.02;40.84
32197;BME280;18697;42.770;23.400;2023-10-31T11:04:48;95302.13;;;24.07;40.80
32197;BME280;18697;42.770;23.400;2023-10-31T11:07:15;95296.63;;;24.02;41.32
32197;BME280;18697;42.770;23.400;2023-10-31T11:09:42;95281.25;;;24.64;41.02
32197;BME280;18697;42.770;23.400;2023-10-31T11:12:10;95286.78;;;25.07;40.37
32197;BME280;18697;42.770;23.400;2023-10-31T11:14:36;95283.88;;;25.45;39.44
32197;BME280;18697;42.770;23.400;2023-10-31T11:17:22;95293.31;;;25.63;37.75
32197;BME280;18697;42.770;23.400;2023-10-31T11:19:50;95291.09;;;25.39;38.32
32197;BME280;18697;42.770;23.400;2023-10-31T11:22:17;95270.03;;;25.49;36.99
32197;BME280;18697;42.770;23.400;2023-10-31T11:24:43;95268.50;;;25.56;36.33
32197;BME280;18697;42.770;23.400;2023-10-31T11:27:08;95270.94;;;25.60;36.47
32197;BME280;18697;42.770;23.400;2023-10-31T11:29:36;95267.59;;;25.31;35.44
32197;BME280;18697;42.770;23.400;2023-10-31T11:32:01;95257.78;;;24.86;36.14
32197;BME280;18697;42.770;23.400;2023-10-31T11:34:28;95254.75;;;24.38;37.04
32197;BME280;18697;42.770;23.400;2023-10-31T11:40:20;95236.41;;;24.85;36.67
32197;BME280;18697;42.770;23.400;2023-10-31T11:42:48;95222.38;;;24.87;37.71
32197;BME280;18697;42.770;23.400;2023-10-31T11:45:48;95229.78;;;24.75;35.76
32197;BME280;18697;42.770;23.400;2023-10-31T11:48:14;95233.56;;;24.54;36.11
32197;BME280;18697;42.770;23.400;2023-10-31T11:50:40;95225.63;;;24.61;37.27
32197;BME280;18697;42.770;23.400;2023-10-31T11:55:40;95209.91;;;24.60;37.57
32197;BME280;18697;42.770;23.400;2023-10-31T11:58:18;95210.28;;;24.71;38.09
32197;BME280;18697;42.770;23.400;2023-10-31T12:00:50;95208.38;;;24.58;35.42
32197;BME280;18697;42.770;23.400;2023-10-31T12:03:17;95211.63;;;24.32;36.23
32197;BME280;18697;42.770;23.400;2023-10-31T12:05:56;95207.22;;;24.23;35.65
32197;BME280;18697;42.770;23.400;2023-10-31T12:08:26;95203.78;;;24.02;36.29
32197;BME280;18697;42.770;23.400;2023-10-31T12:10:52;95195.97;;;23.28;37.10
32197;BME280;18697;42.770;23.400;2023-10-31T12:13:17;95189.44;;;23.49;37.89
32197;BME280;18697;42.770;23.400;2023-10-31T12:15:52;95170.44;;;23.21;37.84
32197;BME280;18697;42.770;23.400;2023-10-31T12:18:18;95168.28;;;23.50;37.74
32197;BME280;18697;42.770;23.400;2023-10-31T12:20:48;95167.44;;;23.26;38.28
32197;BME280;18697;42.770;23.400;2023-10-31T12:23:14;95159.00;;;23.42;37.88
32197;BME280;18697;42.770;23.400;2023-10-31T12:25:52;95162.63;;;23.50;39.56
32197;BME280;18697;42.770;23.400;2023-10-31T12:28:18;95163.81;;;23.62;39.40
32197;BME280;18697;42.770;23.400;2023-10-31T12:30:49;95168.78;;;23.77;39.24
32197;BME280;18697;42.770;23.400;2023-10-31T12:33:15;95168.38;;;23.80;38.26
32197;BME280;18697;42.770;23.400;2023-10-31T12:35:42;95163.09;;;23.92;37.88
32197;BME280;18697;42.770;23.400;2023-10-31T12:38:10;95153.06;;;23.83;38.20
32197;BME280;18697;42.770;23.400;2023-10-31T12:40:38;95158.00;;;23.90;37.68
32197;BME280;18697;42.770;23.400;2023-10-31T12:43:04;95159.13;;;23.87;37.92
32197;BME280;18697;42.770;23.400;2023-10-31T12:45:30;95147.28;;;23.38;38.71
32197;BME280;18697;42.770;23.400;2023-10-31T12:48:09;95137.56;;;23.62;38.53
32197;BME280;18697;42.770;23.400;2023-10-31T12:50:36;95138.13;;;23.60;38.60
32197;BME280;18697;42.770;23.400;2023-10-31T12:53:03;95122.13;;;23.34;39.21
32197;BME280;18697;42.770;23.400;2023-10-31T12:55:29;95115.78;;;23.05;40.16
32197;BME280;18697;42.770;23.400;2023-10-31T12:57:55;95120.59;;;23.25;39.49